Time;durP1;ratioP1;P1;durP2;ratioP2;P2;SDS_P1;SDS_P2;PMS_P1;PMS_P2;Temp;Humidity;BMP_temperature;BMP_pressure;BME280_temperature;BME280_humidity;BME280_pressure;Samples;Min_cycle;Max_cycle;Signal;HPM_P1;HPM_P2
2022/04/02 10:27:32;;;;;;;2.90;2.80;;;;;;;;;;5052775;28;20674;-69
2022/04/02 10:30:07;;;;;;;2.10;2.00;;;20.60;54.60;;;;;;5030360;28;20408;-67
2022/04/02 10:32:37;;;;;;;3.20;3.00;;;;;;;;;;5036415;28;20186;-66
2022/04/02 10:35:11;;;;;;;2.38;2.28;;;20.80;45.90;;;;;;5033707;28;20478;-67
2022/04/02 10:38:03;;;;;;;1.90;1.90;;;20.70;48.50;;;;;;5034577;28;20305;-66
2022/04/02 10:40:30;;;;;;;2.30;2.17;;;20.80;49.60;;;;;;5034349;28;20422;-67
2022/04/02 10:43:06;;;;;;;3.10;2.83;;;20.70;45.90;;;;;;5033917;28;20536;-66
2022/04/02 10:45:36;;;;;;;3.47;3.28;;;20.90;50.90;;;;;;5034185;28;20503;-67
2022/04/02 10:48:02;;;;;;;2.60;2.50;;;;;;;;;;5034237;28;20242;-68
2022/04/02 10:50:29;;;;;;;2.43;2.10;;;20.80;50.40;;;;;;5033782;28;21105;-69
2022/04/02 10:53:01;;;;;;;2.40;2.20;;;20.80;50.40;;;;;;5032516;28;20419;-68
2022/04/02 10:55:28;;;;;;;2.03;1.90;;;22.70;50.60;;;;;;5034053;28;20884;-68
2022/04/02 10:57:59;;;;;;;2.00;1.90;;;20.90;50.90;;;;;;5033961;28;20449;-68
2022/04/02 11:00:26;;;;;;;1.80;1.70;;;20.70;49.30;;;;;;5034057;28;20426;-69
2022/04/02 11:03:03;;;;;;;2.23;2.13;;;20.90;49.80;;;;;;5034239;28;20583;-68
2022/04/02 11:05:37;;;;;;;1.80;1.70;;;20.90;49.90;;;;;;5033532;28;20556;-69
2022/04/02 11:08:11;;;;;;;1.93;1.83;;;20.90;50.60;;;;;;5033900;28;20477;-68
2022/04/02 11:10:37;;;;;;;1.87;1.77;;;20.80;48.00;;;;;;5025798;28;20418;-68
2022/04/02 11:13:08;;;;;;;1.70;1.60;;;20.90;51.10;;;;;;5033814;28;20492;-69
2022/04/02 11:15:41;;;;;;;2.13;2.10;;;20.90;46.60;;;;;;5042789;28;20442;-68
2022/04/02 11:18:17;;;;;;;9.17;2.23;;;20.90;45.40;;;;;;5040592;28;20950;-69
2022/04/02 11:20:44;;;;;;;1.97;1.97;;;20.90;45.10;;;;;;5041905;28;20429;-68
2022/04/02 11:23:23;;;;;;;2.07;1.97;;;21.70;45.30;;;;;;5045589;28;20431;-68
2022/04/02 11:25:54;;;;;;;2.20;2.10;;;20.80;47.60;;;;;;5045007;28;20469;-68
2022/04/02 11:28:22;;;;;;;2.20;2.17;;;20.90;45.00;;;;;;5028363;28;20470;-69
2022/04/02 11:30:49;;;;;;;1.77;1.67;;;20.80;44.90;;;;;;5032766;28;20907;-69
2022/04/02 11:33:19;;;;;;;1.90;1.80;;;20.80;45.50;;;;;;5033585;28;20416;-68
2022/04/02 11:35:45;;;;;;;2.10;2.00;;;;;;;;;;5033259;28;20502;-68
2022/04/02 11:38:20;;;;;;;2.60;2.40;;;20.90;62.40;;;;;;5022732;28;20462;-69
2022/04/02 11:41:10;;;;;;;2.03;1.93;;;20.90;44.80;;;;;;5027202;28;20425;-69
2022/04/02 11:43:38;;;;;;;1.30;1.30;;;20.90;44.80;;;;;;5019807;28;20428;-69
2022/04/02 11:46:07;;;;;;;2.17;1.97;;;20.90;44.70;;;;;;5024038;28;20466;-69
2022/04/02 11:48:35;;;;;;;2.10;1.87;;;21.00;44.70;;;;;;5024713;28;20981;-69
2022/04/02 11:51:18;;;;;;;1.60;1.50;;;21.00;63.40;;;;;;5026352;28;20427;-69
2022/04/02 11:53:44;;;;;;;1.80;1.70;;;21.00;44.60;;;;;;5022624;28;20788;-69
2022/04/02 11:56:24;;;;;;;1.87;1.77;;;21.00;61.40;;;;;;5020820;28;20794;-68
2022/04/02 11:58:50;;;;;;;1.63;1.53;;;20.70;54.30;;;;;;5023345;28;20814;-69
2022/04/02 12:01:20;;;;;;;1.90;1.80;;;21.60;62.40;;;;;;5020094;28;20813;-69
2022/04/02 12:03:46;;;;;;;1.77;1.67;;;;;;;;;;5019371;28;20477;-69
2022/04/02 12:06:12;;;;;;;2.00;1.90;;;;;;;;;;5018677;28;20471;-69
2022/04/02 12:08:41;;;;;;;1.80;1.70;;;21.00;44.60;;;;;;5021415;28;20463;-69
2022/04/02 12:11:09;;;;;;;1.50;1.50;;;21.10;62.30;;;;;;5025937;28;20424;-69
2022/04/02 12:13:36;;;;;;;1.50;1.50;;;20.80;49.30;;;;;;5023733;28;20419;-69
2022/04/02 12:16:15;;;;;;;1.67;1.57;;;20.10;44.00;;;;;;5023943;28;20423;-68
2022/04/02 12:18:57;;;;;;;1.10;1.10;;;21.00;61.20;;;;;;5022432;28;20458;-69
2022/04/02 12:21:35;;;;;;;1.87;1.80;;;20.90;44.40;;;;;;5021782;28;20481;-69
2022/04/02 12:24:03;;;;;;;1.83;1.73;;;20.80;61.40;;;;;;5021922;28;20431;-69
2022/04/02 12:26:30;;;;;;;2.67;1.97;;;21.10;56.80;;;;;;5022360;28;20577;-71
2022/04/02 12:28:59;;;;;;;1.63;1.53;;;21.30;44.90;;;;;;5026834;28;21166;-67
2022/04/02 12:31:30;;;;;;;1.87;1.77;;;20.60;62.50;;;;;;5023914;28;20439;-67
2022/04/02 12:33:57;;;;;;;1.80;1.70;;;21.00;44.70;;;;;;5028043;28;20447;-68
2022/04/02 12:36:38;;;;;;;1.70;1.70;;;20.90;44.50;;;;;;5028760;28;20539;-68
2022/04/02 12:39:09;;;;;;;1.97;1.83;;;21.00;44.50;;;;;;5025442;28;20767;-67
2022/04/02 12:41:48;;;;;;;2.17;2.07;;;20.90;44.50;;;;;;5023785;28;20423;-68
2022/04/02 12:44:22;;;;;;;1.73;1.73;;;20.90;44.90;;;;;;5023723;28;20558;-68
2022/04/02 12:46:49;;;;;;;1.30;1.30;;;;;;;;;;5029550;28;20470;-68
2022/04/02 12:49:32;;;;;;;1.50;1.40;;;20.90;62.20;;;;;;5029048;28;20618;-67
2022/04/02 12:52:16;;;;;;;1.60;1.60;;;21.00;44.60;;;;;;5029536;28;20426;-68
2022/04/02 12:54:44;;;;;;;1.70;1.70;;;21.20;67.90;;;;;;5029697;28;20419;-68
2022/04/02 12:57:12;;;;;;;1.70;1.70;;;20.90;44.90;;;;;;5029620;28;20516;-67
2022/04/02 12:59:42;;;;;;;1.67;1.57;;;20.90;50.40;;;;;;5029889;28;20427;-68
2022/04/02 13:02:18;;;;;;;2.13;1.13;;;21.10;45.30;;;;;;5028957;28;20431;-68
2022/04/02 13:04:51;;;;;;;1.60;1.50;;;21.20;53.20;;;;;;5029662;28;20436;-68
2022/04/02 13:07:21;;;;;;;1.70;1.60;;;20.80;62.40;;;;;;5022224;28;20555;-67
2022/04/02 13:09:49;;;;;;;1.50;1.50;;;21.30;45.00;;;;;;5029699;28;20441;-68
2022/04/02 13:12:23;;;;;;;1.70;1.60;;;20.90;44.50;;;;;;5029472;28;20504;-67
2022/04/02 13:14:57;;;;;;;1.20;1.20;;;21.00;62.70;;;;;;5029526;28;20787;-67
2022/04/02 13:17:23;;;;;;;1.63;1.53;;;;;;;;;;5020584;28;20446;-68
2022/04/02 13:22:52;;;;;;;1.60;1.60;;;20.80;44.80;;;;;;5024606;28;20461;-67
2022/04/02 13:25:22;;;;;;;1.43;1.43;;;20.70;62.60;;;;;;5028875;28;20462;-68
2022/04/02 13:28:10;;;;;;;1.73;1.63;;;20.90;44.50;;;;;;5029095;28;20483;-68
2022/04/02 13:30:40;;;;;;;1.33;1.33;;;21.00;44.80;;;;;;5028944;28;20926;-67
2022/04/02 13:33:24;;;;;;;1.90;1.80;;;20.80;44.50;;;;;;5030707;28;20918;-68
2022/04/02 13:35:54;;;;;;;1.10;1.10;;;20.90;45.00;;;;;;5028980;28;20526;-68
2022/04/02 13:38:29;;;;;;;1.63;1.53;;;21.30;44.90;;;;;;5028851;28;20611;-67
2022/04/02 13:41:03;;;;;;;1.83;1.73;;;20.90;44.60;;;;;;5026981;28;20446;-67
2022/04/02 13:43:34;;;;;;;1.60;1.53;;;21.00;44.70;;;;;;5028970;28;20846;-68
2022/04/02 13:46:06;;;;;;;1.60;1.50;;;21.10;62.60;;;;;;5028782;28;20494;-67
2022/04/02 13:48:51;;;;;;;1.50;1.40;;;21.10;65.00;;;;;;5027415;28;20443;-68
2022/04/02 13:51:22;;;;;;;2.43;1.80;;;21.10;47.00;;;;;;5028599;28;20793;-67
2022/04/02 13:53:54;;;;;;;1.60;1.50;;;21.00;45.20;;;;;;5028969;28;20831;-67
2022/04/02 13:56:24;;;;;;;1.60;1.50;;;21.00;45.00;;;;;;5025686;28;20519;-67
2022/04/02 13:58:57;;;;;;;1.80;1.70;;;21.00;46.10;;;;;;5024414;28;20445;-67
2022/04/02 14:01:25;;;;;;;1.43;1.43;;;21.60;50.10;;;;;;5027576;28;20526;-67
2022/04/02 14:04:11;;;;;;;1.93;1.83;;;21.00;53.30;;;;;;5028677;28;20439;-67
2022/04/02 14:06:43;;;;;;;2.00;1.90;;;21.00;45.00;;;;;;5027469;28;20466;-67
2022/04/02 14:09:11;;;;;;;1.30;1.30;;;20.90;50.40;;;;;;5028490;28;20785;-67
2022/04/02 14:11:40;;;;;;;1.23;1.23;;;20.80;47.50;;;;;;5028051;28;20430;-67
2022/04/02 14:14:06;;;;;;;2.07;1.97;;;;;;;;;;5028279;28;20431;-68
2022/04/02 14:16:34;;;;;;;1.33;1.33;;;20.90;45.20;;;;;;5028393;28;20469;-69
2022/04/02 14:19:10;;;;;;;1.40;1.30;;;21.00;45.00;;;;;;5028841;28;20430;-68
2022/04/02 14:21:38;;;;;;;1.37;1.37;;;21.00;45.40;;;;;;5028277;28;20451;-68
2022/04/02 14:24:13;;;;;;;1.50;1.40;;;21.00;45.20;;;;;;5029110;28;20458;-68
2022/04/02 14:27:00;;;;;;;1.83;1.83;;;21.00;45.10;;;;;;5029979;28;20477;-68
2022/04/02 14:30:06;;;;;;;1.80;1.67;;;20.90;48.20;;;;;;5033313;28;20942;-68
2022/04/02 14:33:22;;;;;;;1.20;1.20;;;21.00;45.10;;;;;;5023660;28;20770;-68
2022/04/02 14:35:54;;;;;;;1.73;1.73;;;20.80;63.30;;;;;;5027090;28;20525;-68
2022/04/02 14:38:31;;;;;;;1.80;1.70;;;20.90;63.00;;;;;;5028161;28;20447;-68
2022/04/02 14:41:16;;;;;;;1.73;1.73;;;21.00;45.10;;;;;;5027937;28;20430;-68
2022/04/02 14:43:42;;;;;;;1.37;1.37;;;;;;;;;;5025449;28;20876;-68
2022/04/02 14:46:07;;;;;;;1.70;1.70;;;;;;;;;;5027956;28;20465;-68
2022/04/02 14:49:02;;;;;;;1.43;1.43;;;20.70;62.80;;;;;;5028105;28;20458;-68
2022/04/02 14:51:49;;;;;;;1.33;1.33;;;21.00;63.50;;;;;;5023569;28;20179;-68
2022/04/02 14:54:38;;;;;;;1.43;1.33;;;20.90;47.20;;;;;;5021248;28;20525;-68
2022/04/02 14:57:31;;;;;;;1.70;1.70;;;20.90;45.00;;;;;;5027933;28;20805;-68
2022/04/02 15:00:34;;;;;;;1.80;1.80;;;20.90;45.10;;;;;;5026084;28;20462;-70
2022/04/02 15:03:19;;;;;;;1.67;1.67;;;21.00;45.10;;;;;;5026332;28;20517;-69
2022/04/02 15:06:07;;;;;;;1.97;1.87;;;21.70;45.60;;;;;;5027950;28;20505;-68
2022/04/02 15:08:54;;;;;;;1.80;1.80;;;21.00;45.50;;;;;;5028307;28;20420;-68
2022/04/02 15:11:20;;;;;;;3.40;1.80;;;;;;;;;;5028531;28;20404;-68
2022/04/02 15:13:54;;;;;;;2.10;2.10;;;21.00;46.00;;;;;;5030759;28;20438;-69
2022/04/02 15:16:27;;;;;;;2.10;2.00;;;21.10;46.00;;;;;;5031706;28;20751;-69
2022/04/02 15:18:53;;;;;;;2.03;1.90;;;;;;;;;;5023862;28;20486;-69
2022/04/02 15:21:24;;;;;;;1.80;1.70;;;21.00;46.80;;;;;;5031476;28;20427;-68
2022/04/02 15:23:57;;;;;;;2.10;2.00;;;21.20;47.20;;;;;;5031572;28;20435;-68
2022/04/02 15:26:23;;;;;;;6.40;1.70;;;;;;;;;;5031107;28;20558;-68
2022/04/02 15:29:08;;;;;;;1.70;1.60;;;21.20;46.30;;;;;;5030911;28;20445;-68
2022/04/02 15:31:55;;;;;;;1.47;1.47;;;21.10;46.20;;;;;;5030940;28;20435;-68
2022/04/02 15:34:22;;;;;;;1.30;1.30;;;21.20;48.90;;;;;;5029493;28;20426;-68
2022/04/02 15:37:03;;;;;;;1.67;1.57;;;21.10;46.10;;;;;;5030923;28;20459;-68
2022/04/02 15:39:33;;;;;;;1.70;1.67;;;20.60;52.20;;;;;;5031724;28;20438;-68
2022/04/02 15:42:00;;;;;;;1.70;1.60;;;21.10;46.20;;;;;;5031558;28;20849;-68
2022/04/02 15:44:30;;;;;;;1.43;1.33;;;21.10;46.20;;;;;;5031294;28;20439;-68
2022/04/02 15:46:57;;;;;;;1.40;1.40;;;;;;;;;;5030907;28;20463;-68
2022/04/02 15:49:30;;;;;;;2.63;1.83;;;21.20;45.50;;;;;;5031204;28;20431;-68
2022/04/02 15:51:56;;;;;;;1.23;1.23;;;;;;;;;;5030690;28;20827;-68
2022/04/02 15:54:27;;;;;;;1.73;1.73;;;21.00;45.30;;;;;;5031280;28;20622;-68
2022/04/02 15:57:08;;;;;;;1.77;1.67;;;21.00;45.20;;;;;;5030796;28;20628;-68
2022/04/02 15:59:35;;;;;;;1.37;1.37;;;21.00;45.50;;;;;;5032956;28;20864;-68
2022/04/02 16:02:02;;;;;;;1.80;1.70;;;;;;;;;;5040674;28;20605;-68
2022/04/02 16:04:27;;;;;;;1.63;1.53;;;;;;;;;;5031247;28;20779;-68
2022/04/02 16:06:54;;;;;;;1.70;1.60;;;;;;;;;;5030268;28;20691;-68
2022/04/02 16:09:20;;;;;;;1.63;1.53;;;;;;;;;;5031092;28;20444;-68
2022/04/02 16:11:47;;;;;;;2.07;1.87;;;20.90;45.20;;;;;;5030583;28;20462;-68
2022/04/02 16:14:29;;;;;;;1.73;1.73;;;22.10;46.00;;;;;;5030705;28;20518;-68
2022/04/02 16:17:01;;;;;;;2.13;2.03;;;21.00;44.90;;;;;;5030430;28;20516;-68
2022/04/02 16:19:48;;;;;;;1.77;1.67;;;21.00;45.00;;;;;;5030837;28;20420;-69
2022/04/02 16:22:21;;;;;;;2.10;2.00;;;21.20;52.50;;;;;;5030688;28;20459;-68
2022/04/02 16:24:53;;;;;;;1.70;1.70;;;20.90;44.80;;;;;;5030504;28;20828;-68
2022/04/02 16:27:19;;;;;;;1.87;1.77;;;20.90;52.60;;;;;;5030025;28;20549;-68
2022/04/02 16:29:45;;;;;;;6.13;1.67;;;;;;;;;;5035304;28;20513;-68
2022/04/02 16:32:11;;;;;;;2.33;1.80;;;;;;;;;;5043824;28;20423;-68
2022/04/02 16:34:42;;;;;;;2.00;1.47;;;20.90;45.60;;;;;;5030513;28;20422;-68
2022/04/02 16:37:10;;;;;;;2.57;2.37;;;21.30;48.00;;;;;;5029082;28;20513;-68
2022/04/02 16:39:39;;;;;;;1.93;1.83;;;21.00;45.60;;;;;;5030143;28;20454;-68
2022/04/02 16:42:18;;;;;;;3.40;2.47;;;20.90;44.90;;;;;;5030158;28;20424;-68
2022/04/02 16:44:55;;;;;;;2.10;2.00;;;19.30;48.10;;;;;;5014210;28;20473;-68
2022/04/02 16:47:30;;;;;;;2.53;2.27;;;20.90;44.90;;;;;;5023716;28;20555;-70
2022/04/02 16:49:59;;;;;;;2.83;2.37;;;20.90;45.50;;;;;;5029401;28;20769;-69
2022/04/02 16:52:33;;;;;;;3.57;3.20;;;21.00;48.50;;;;;;5029636;28;20430;-71
2022/04/02 16:54:59;;;;;;;2.57;2.47;;;20.90;45.80;;;;;;5029938;28;20514;-69
2022/04/02 16:57:34;;;;;;;2.30;2.20;;;21.10;45.40;;;;;;5019265;28;20460;-67
2022/04/02 17:00:00;;;;;;;2.20;2.10;;;;;;;;;;5013787;28;20431;-67
2022/04/02 17:02:40;;;;;;;2.20;2.10;;;21.00;45.30;;;;;;5015772;28;20477;-67
2022/04/02 17:05:11;;;;;;;1.60;1.50;;;21.00;46.10;;;;;;5023674;28;20460;-67
2022/04/02 17:07:49;;;;;;;1.90;1.80;;;21.00;45.30;;;;;;5022205;28;20461;-67
2022/04/02 17:10:19;;;;;;;2.00;1.90;;;21.00;45.30;;;;;;5015888;28;20957;-67
2022/04/02 17:12:46;;;;;;;2.30;1.37;;;;;;;;;;5013846;28;20860;-67
2022/04/02 17:15:12;;;;;;;1.60;1.50;;;;;;;;;;5019327;28;20434;-67
2022/04/02 17:17:38;;;;;;;2.43;2.00;;;;;;;;;;5019978;28;20452;-67
2022/04/02 17:20:04;;;;;;;1.73;1.57;;;;;;;;;;5018635;28;20948;-67
2022/04/02 17:22:41;;;;;;;1.67;1.57;;;21.00;45.20;;;;;;5026257;28;20451;-67
2022/04/02 17:25:09;;;;;;;1.77;1.67;;;21.10;51.50;;;;;;5017883;28;20419;-67
2022/04/02 17:27:43;;;;;;;1.70;1.60;;;21.00;45.20;;;;;;5018286;28;20543;-67
2022/04/02 17:30:23;;;;;;;1.70;1.60;;;21.00;45.30;;;;;;5017859;28;20471;-67
2022/04/02 17:32:50;;;;;;;5.63;3.77;;;21.00;45.90;;;;;;5026531;28;20416;-68
2022/04/02 17:35:21;;;;;;;1.47;1.47;;;21.00;45.90;;;;;;5017001;28;20424;-67
2022/04/02 17:37:52;;;;;;;2.17;2.07;;;21.10;46.00;;;;;;5019426;28;21425;-68
2022/04/02 17:40:28;;;;;;;2.07;1.97;;;21.00;45.30;;;;;;5023133;28;20429;-68
2022/04/02 17:42:56;;;;;;;1.47;1.37;;;21.00;45.30;;;;;;5026745;28;20457;-69
2022/04/02 17:45:28;;;;;;;4.23;2.10;;;21.00;45.60;;;;;;5028710;28;20473;-68
2022/04/02 17:48:18;;;;;;;2.20;2.10;;;21.00;46.50;;;;;;5028879;28;20435;-67
2022/04/02 17:50:51;;;;;;;4.10;2.10;;;21.60;50.80;;;;;;5028813;28;20427;-68
2022/04/02 17:53:17;;;;;;;3.10;2.10;;;;;;;;;;5028659;28;20426;-69
2022/04/02 17:55:43;;;;;;;2.10;2.00;;;;;;;;;;5028835;28;20810;-67
2022/04/02 17:58:19;;;;;;;2.40;2.20;;;21.20;47.20;;;;;;5028541;28;20937;-68
2022/04/02 18:00:49;;;;;;;2.30;2.20;;;21.30;52.00;;;;;;5027612;28;20539;-67
2022/04/02 18:03:16;;;;;;;3.57;2.67;;;21.30;48.60;;;;;;5028979;28;20485;-68
2022/04/02 18:05:43;;;;;;;2.57;2.40;;;21.00;47.90;;;;;;5010031;28;20993;-68
2022/04/02 18:08:09;;;;;;;3.13;2.83;;;21.50;53.60;;;;;;5048104;28;20450;-68
2022/04/02 18:10:36;;;;;;;5.17;2.30;;;;;;;;;;5048583;28;20784;-68
2022/04/02 18:13:03;;;;;;;2.30;2.10;;;21.50;48.10;;;;;;5047853;28;20886;-68
2022/04/02 18:15:30;;;;;;;2.30;2.20;;;21.40;48.00;;;;;;5048647;28;20422;-67
2022/04/02 18:17:56;;;;;;;3.37;2.83;;;;;;;;;;5048603;28;20503;-68
2022/04/02 18:20:21;;;;;;;3.70;2.60;;;21.40;49.90;;;;;;5039372;28;20422;-65
2022/04/02 18:22:47;;;;;;;4.33;2.27;;;;;;;;;;5043308;28;20813;-69
2022/04/02 18:25:15;;;;;;;1.80;1.70;;;21.40;47.60;;;;;;5042124;28;20195;-69
2022/04/02 18:27:42;;;;;;;3.27;2.00;;;21.10;47.30;;;;;;5047250;28;20515;-68
2022/04/02 18:30:13;;;;;;;1.70;1.60;;;21.40;46.80;;;;;;5047931;28;20442;-69
2022/04/02 18:32:39;;;;;;;1.50;1.40;;;;;;;;;;5045305;28;20437;-68
2022/04/02 18:35:05;;;;;;;1.53;1.43;;;21.30;47.20;;;;;;5048418;28;20454;-68
2022/04/02 18:37:32;;;;;;;1.70;1.60;;;;;;;;;;5047736;28;20477;-69
2022/04/02 18:39:58;;;;;;;1.30;1.30;;;;;;;;;;5048317;28;20411;-68
2022/04/02 18:42:24;;;;;;;1.90;1.80;;;;;;;;;;5048027;28;20539;-68
2022/04/02 18:44:50;;;;;;;1.53;1.43;;;;;;;;;;5048499;28;20568;-68
2022/04/02 18:47:16;;;;;;;2.90;1.40;;;;;;;;;;5048690;28;20841;-69
2022/04/02 18:49:43;;;;;;;1.30;1.20;;;21.10;54.60;;;;;;5052477;28;20487;-69
2022/04/02 18:52:09;;;;;;;1.27;1.17;;;21.10;51.50;;;;;;5052068;28;20498;-69
2022/04/02 18:54:35;;;;;;;1.33;1.27;;;;;;;;;;5051894;28;20422;-68
2022/04/02 18:57:01;;;;;;;2.50;1.90;;;;;;;;;;5054399;28;20456;-68
2022/04/02 18:59:27;;;;;;;1.70;1.60;;;21.40;57.50;;;;;;5053175;28;20426;-68
2022/04/02 19:01:53;;;;;;;1.67;1.67;;;;;;;;;;5051956;28;20524;-68
2022/04/02 19:04:19;;;;;;;1.67;1.60;;;;;;;;;;5051946;28;20187;-68
2022/04/02 19:06:45;;;;;;;1.80;1.70;;;;;;;;;;5051530;28;20538;-68
2022/04/02 19:09:11;;;;;;;7.50;2.03;;;;;;;;;;5051962;28;20418;-68
2022/04/02 19:11:37;;;;;;;1.50;1.50;;;;;;;;;;5051394;28;20410;-68
2022/04/02 19:14:03;;;;;;;1.90;1.73;;;;;;;;;;5052040;28;20475;-68
2022/04/02 19:16:30;;;;;;;2.30;1.30;;;;;;;;;;5050237;28;20418;-68
2022/04/02 19:18:56;;;;;;;2.07;1.33;;;;;;;;;;5051620;28;22166;-68
2022/04/02 19:21:21;;;;;;;1.40;1.40;;;;;;;;;;5051815;28;20513;-68
2022/04/02 19:23:48;;;;;;;3.30;1.20;;;;;;;;;;5051690;28;20441;-68
2022/04/02 19:26:13;;;;;;;1.77;1.67;;;;;;;;;;5055568;28;20473;-69
2022/04/02 19:28:39;;;;;;;1.53;1.43;;;;;;;;;;5059062;28;20446;-68
2022/04/02 19:31:06;;;;;;;1.50;1.40;;;;;;;;;;5053649;28;20422;-68
2022/04/02 19:33:33;;;;;;;1.77;1.47;;;;;;;;;;5057084;28;20866;-67
2022/04/02 19:35:59;;;;;;;3.00;1.40;;;;;;;;;;5051173;28;20793;-68
2022/04/02 19:38:25;;;;;;;2.30;1.00;;;;;;;;;;5051417;28;20875;-67
2022/04/02 19:40:51;;;;;;;1.37;1.37;;;21.10;46.60;;;;;;5051095;28;20476;-67
2022/04/02 19:43:18;;;;;;;1.90;1.80;;;21.10;46.40;;;;;;5050003;28;20750;-69
2022/04/02 19:45:44;;;;;;;1.33;1.23;;;;;;;;;;5051167;28;20988;-67
2022/04/02 19:48:10;;;;;;;1.60;1.50;;;;;;;;;;5051149;28;20523;-68
2022/04/02 19:50:36;;;;;;;1.57;1.20;;;21.00;48.80;;;;;;5051433;28;20414;-68
2022/04/02 19:53:07;;;;;;;1.10;1.00;;;21.30;50.90;;;;;;5050474;28;20479;-68
2022/04/02 19:55:33;;;;;;;1.47;1.47;;;21.10;46.20;;;;;;5053903;28;20195;-67
2022/04/02 19:57:59;;;;;;;2.43;1.17;;;;;;;;;;5067609;28;20450;-67
2022/04/02 20:00:26;;;;;;;1.20;1.10;;;21.20;48.50;;;;;;5050644;28;20445;-68
2022/04/02 20:02:52;;;;;;;1.50;1.23;;;;;;;;;;5050925;28;20525;-68
2022/04/02 20:05:18;;;;;;;1.40;1.30;;;;;;;;;;5050653;28;20831;-69
2022/04/02 20:07:44;;;;;;;2.40;1.60;;;;;;;;;;5050577;28;20439;-68
2022/04/02 20:10:13;;;;;;;1.53;1.43;;;;;;;;;;5050793;28;20540;-69
2022/04/02 20:12:39;;;;;;;1.67;1.57;;;;;;;;;;5043066;28;20430;-68
2022/04/02 20:15:06;;;;;;;1.13;1.10;;;21.00;51.50;;;;;;5051039;28;20419;-67
2022/04/02 20:17:32;;;;;;;1.67;1.57;;;;;;;;;;5050669;28;20458;-68
2022/04/02 20:19:58;;;;;;;1.20;1.20;;;21.00;52.80;;;;;;5050550;28;20422;-68
2022/04/02 20:22:25;;;;;;;1.10;1.10;;;21.00;56.30;;;;;;5050559;28;20444;-68
2022/04/02 20:24:51;;;;;;;1.67;1.50;;;;;;;;;;5050506;28;20574;-68
2022/04/02 20:27:20;;;;;;;1.90;1.30;;;;;;;;;;5054307;28;20458;-68
2022/04/02 20:29:46;;;;;;;1.63;1.30;;;;;;;;;;5050733;28;20526;-67
2022/04/02 20:32:12;;;;;;;1.30;1.20;;;21.10;46.20;;;;;;5055398;28;20434;-68
2022/04/02 20:34:38;;;;;;;1.73;1.30;;;;;;;;;;5050089;28;20454;-68
2022/04/02 20:37:05;;;;;;;1.43;1.33;;;21.10;56.00;;;;;;5049684;28;20450;-67
2022/04/02 20:39:30;;;;;;;1.30;1.30;;;;;;;;;;5049866;28;20433;-68
2022/04/02 20:41:56;;;;;;;1.70;1.60;;;;;;;;;;5050033;28;20426;-68
2022/04/02 20:44:23;;;;;;;1.50;1.40;;;;;;;;;;5050251;28;20525;-68
2022/04/02 20:46:49;;;;;;;1.50;1.40;;;;;;;;;;5049582;28;20546;-68
2022/04/02 20:49:17;;;;;;;1.37;1.27;;;21.30;58.20;;;;;;5045983;28;20525;-68
2022/04/02 20:51:43;;;;;;;1.10;1.10;;;20.40;49.40;;;;;;5049866;28;20430;-68
2022/04/02 20:54:09;;;;;;;1.10;1.10;;;;;;;;;;5049784;28;20452;-68
2022/04/02 20:56:35;;;;;;;1.33;1.23;;;;;;;;;;5057707;28;20913;-68
2022/04/02 20:59:01;;;;;;;1.10;1.10;;;;;;;;;;5055916;28;20508;-68
2022/04/02 21:01:27;;;;;;;2.07;1.60;;;;;;;;;;5049684;28;20553;-67
2022/04/02 21:03:53;;;;;;;0.90;0.90;;;;;;;;;;5048986;28;20425;-68
2022/04/02 21:06:19;;;;;;;1.20;1.20;;;;;;;;;;5049429;28;20494;-68
2022/04/02 21:08:45;;;;;;;3.07;1.20;;;20.80;46.10;;;;;;5049784;28;20438;-68
2022/04/02 21:11:11;;;;;;;1.57;1.47;;;;;;;;;;5048762;28;20457;-68
2022/04/02 21:13:40;;;;;;;0.90;0.90;;;;;;;;;;5049717;28;20187;-68
2022/04/02 21:16:06;;;;;;;1.40;1.40;;;;;;;;;;5047751;28;20422;-67
2022/04/02 21:18:32;;;;;;;1.40;1.30;;;;;;;;;;5049314;28;20434;-68
2022/04/02 21:20:59;;;;;;;1.03;1.03;;;20.20;46.00;;;;;;5049594;28;20432;-67
2022/04/02 21:23:25;;;;;;;1.33;1.23;;;;;;;;;;5049765;28;20517;-68
2022/04/02 21:25:52;;;;;;;3.40;1.77;;;;;;;;;;5055194;28;20461;-67
2022/04/02 21:28:18;;;;;;;1.00;1.00;;;;;;;;;;5065187;28;20516;-67
2022/04/02 21:30:44;;;;;;;1.27;1.20;;;;;;;;;;5049670;28;20419;-68
2022/04/02 21:33:10;;;;;;;0.80;0.80;;;;;;;;;;5050860;28;20426;-67
2022/04/02 21:35:36;;;;;;;2.13;1.40;;;;;;;;;;5048220;28;20433;-67
2022/04/02 21:38:02;;;;;;;1.20;1.20;;;;;;;;;;5049033;28;20442;-68
2022/04/02 21:40:29;;;;;;;1.10;1.10;;;;;;;;;;5048128;28;20848;-67
2022/04/02 21:42:55;;;;;;;1.20;1.20;;;;;;;;;;5049443;28;20422;-68
2022/04/02 21:45:21;;;;;;;1.93;1.73;;;;;;;;;;5049294;28;20939;-68
2022/04/02 21:47:47;;;;;;;1.30;1.20;;;;;;;;;;5049135;28;20590;-69
2022/04/02 21:50:13;;;;;;;1.30;1.20;;;21.20;56.30;;;;;;5049449;28;20426;-67
2022/04/02 21:52:39;;;;;;;1.10;1.10;;;;;;;;;;5049368;28;20476;-67
2022/04/02 21:55:05;;;;;;;1.40;1.40;;;21.20;64.50;;;;;;5049307;28;20191;-67
2022/04/02 21:57:31;;;;;;;1.53;1.43;;;;;;;;;;5051529;28;20514;-67
2022/04/02 21:59:57;;;;;;;1.10;1.10;;;;;;;;;;5048951;28;20533;-68
2022/04/02 22:02:23;;;;;;;1.30;1.30;;;21.00;50.50;;;;;;5049065;28;20445;-67
2022/04/02 22:04:51;;;;;;;1.10;1.10;;;20.70;53.50;;;;;;5048948;28;20906;-67
2022/04/02 22:07:18;;;;;;;1.27;1.20;;;21.10;46.70;;;;;;5048471;28;20219;-67
2022/04/02 22:09:45;;;;;;;1.10;1.10;;;21.00;45.80;;;;;;5048676;28;20441;-67
2022/04/02 22:12:11;;;;;;;1.40;1.30;;;21.30;48.80;;;;;;5048859;28;20427;-67
2022/04/02 22:14:39;;;;;;;1.47;1.40;;;20.90;46.70;;;;;;5048871;28;20426;-67
2022/04/02 22:17:05;;;;;;;1.17;1.10;;;20.90;50.50;;;;;;5048927;28;20454;-67
2022/04/02 22:19:30;;;;;;;1.53;1.53;;;20.70;67.90;;;;;;5034623;28;20442;-67
2022/04/02 22:21:56;;;;;;;1.20;1.17;;;;;;;;;;5045172;28;20426;-67
2022/04/02 22:24:22;;;;;;;5.60;2.30;;;;;;;;;;5040320;28;20649;-68
2022/04/02 22:26:49;;;;;;;6.67;3.57;;;21.30;46.40;;;;;;5037425;28;20933;-68
2022/04/02 22:29:15;;;;;;;9.80;4.23;;;21.20;46.90;;;;;;5040804;28;20442;-68
2022/04/02 22:31:43;;;;;;;9.00;4.73;;;21.00;46.90;;;;;;5040089;28;20431;-67
2022/04/02 22:34:09;;;;;;;12.53;4.80;;;21.20;46.90;;;;;;5040477;28;20461;-68
2022/04/02 22:36:43;;;;;;;4.90;4.40;;;20.90;45.30;;;;;;5039928;28;22302;-68
2022/04/02 22:39:09;;;;;;;8.03;4.07;;;;;;;;;;5033849;28;20458;-68
2022/04/02 22:41:35;;;;;;;4.23;3.50;;;;;;;;;;5037449;28;20516;-68
2022/04/02 22:44:02;;;;;;;6.37;3.50;;;20.90;46.90;;;;;;5036874;28;20899;-68
2022/04/02 22:46:28;;;;;;;7.23;3.63;;;;;;;;;;5044894;28;20541;-68
2022/04/02 22:48:54;;;;;;;4.73;3.43;;;21.20;70.90;;;;;;5038219;28;20449;-68
2022/04/02 22:51:19;;;;;;;4.80;3.73;;;20.60;72.30;;;;;;5039233;28;20430;-68
2022/04/02 22:53:45;;;;;;;6.20;3.70;;;;;;;;;;5043171;28;20191;-68
2022/04/02 22:56:11;;;;;;;4.20;3.17;;;;;;;;;;5046875;28;20241;-69
2022/04/02 22:58:37;;;;;;;3.50;3.03;;;;;;;;;;5047043;28;20899;-68
2022/04/02 23:01:03;;;;;;;4.20;3.37;;;;;;;;;;5048224;28;20422;-69
2022/04/02 23:03:30;;;;;;;3.63;3.00;;;;;;;;;;5048217;28;20460;-69
2022/04/02 23:05:56;;;;;;;5.40;3.43;;;;;;;;;;5048059;28;20946;-69
2022/04/02 23:08:22;;;;;;;3.23;3.00;;;;;;;;;;5048188;28;20439;-68
2022/04/02 23:10:48;;;;;;;6.07;3.47;;;;;;;;;;5048462;28;20886;-68
2022/04/02 23:13:14;;;;;;;6.37;3.83;;;;;;;;;;5048333;28;20945;-69
2022/04/02 23:15:40;;;;;;;4.00;2.37;;;;;;;;;;5048104;28;20454;-68
2022/04/02 23:18:06;;;;;;;4.30;2.63;;;;;;;;;;5048312;28;20785;-68
2022/04/02 23:20:32;;;;;;;3.83;3.27;;;;;;;;;;5048207;28;20445;-68
2022/04/02 23:22:57;;;;;;;3.10;2.73;;;20.80;73.20;;;;;;5048917;28;20966;-68
2022/04/02 23:25:23;;;;;;;2.80;2.60;;;20.80;71.80;;;;;;5048075;28;20865;-68
2022/04/02 23:27:49;;;;;;;5.80;3.00;;;21.10;67.70;;;;;;5039887;28;20204;-68
2022/04/02 23:30:14;;;;;;;3.97;2.97;;;20.70;61.80;;;;;;5048314;28;20180;-68
2022/04/02 23:32:43;;;;;;;2.63;2.40;;;21.50;50.90;;;;;;5052952;28;20211;-68
2022/04/02 23:35:10;;;;;;;5.67;3.67;;;21.10;64.60;;;;;;5051889;28;20222;-69
2022/04/02 23:37:36;;;;;;;2.80;2.60;;;;;;;;;;5051361;28;20457;-68
2022/04/02 23:40:02;;;;;;;6.47;3.50;;;;;;;;;;5051906;28;20475;-68
2022/04/02 23:42:27;;;;;;;2.47;2.27;;;21.00;70.70;;;;;;5051525;28;20422;-68
2022/04/02 23:44:53;;;;;;;4.00;3.13;;;21.00;69.40;;;;;;5051626;28;20755;-68
2022/04/02 23:47:20;;;;;;;3.20;3.00;;;20.40;47.50;;;;;;5051349;28;20258;-69
2022/04/02 23:49:46;;;;;;;7.17;3.30;;;;;;;;;;5051822;28;20263;-68
2022/04/02 23:52:12;;;;;;;2.23;2.03;;;;;;;;;;5051933;28;20623;-68
2022/04/02 23:54:38;;;;;;;2.30;2.20;;;;;;;;;;5051688;28;20419;-68
2022/04/02 23:57:04;;;;;;;2.53;2.33;;;21.10;61.20;;;;;;5051068;28;20449;-68
2022/04/02 23:59:30;;;;;;;3.00;2.80;;;;;;;;;;5051533;28;20433;-68
